createdAt,value
2018-12-29T00:01:50.626Z,96.40
2018-12-29T00:04:21.583Z,96.40
2018-12-29T00:06:52.366Z,96.40
2018-12-29T00:09:23.400Z,96.40
2018-12-29T00:11:54.580Z,96.40
2018-12-29T00:14:25.462Z,96.40
2018-12-29T00:16:56.346Z,96.40
2018-12-29T00:19:27.657Z,96.40
2018-12-29T00:21:59.989Z,96.40
2018-12-29T00:24:30.737Z,96.40
2018-12-29T00:27:01.840Z,96.40
2018-12-29T00:29:32.991Z,96.50
2018-12-29T00:32:04.544Z,96.40
2018-12-29T00:34:35.518Z,96.50
2018-12-29T00:37:06.691Z,96.50
2018-12-29T00:39:38.183Z,96.40
2018-12-29T00:42:09.060Z,96.50
2018-12-29T00:44:39.939Z,96.40
2018-12-29T00:47:10.828Z,96.50
2018-12-29T00:49:41.711Z,96.50
2018-12-29T00:52:12.866Z,96.50
2018-12-29T00:54:44.506Z,96.50
2018-12-29T00:57:15.409Z,96.60
2018-12-29T00:59:46.126Z,96.50
2018-12-29T01:02:17.070Z,96.50
2018-12-29T01:04:48.465Z,96.60
2018-12-29T01:07:19.415Z,96.60
2018-12-29T01:09:50.413Z,96.60
2018-12-29T01:12:21.606Z,96.70
2018-12-29T01:14:52.489Z,96.70
2018-12-29T01:17:23.584Z,96.70
2018-12-29T01:19:54.511Z,96.70
2018-12-29T01:22:25.557Z,96.70
2018-12-29T01:24:56.456Z,96.70
2018-12-29T01:27:27.848Z,96.70
2018-12-29T01:29:58.588Z,96.70
2018-12-29T01:32:29.361Z,96.80
2018-12-29T01:35:00.171Z,96.90
2018-12-29T01:37:31.040Z,96.90
2018-12-29T01:40:02.543Z,97.00
2018-12-29T01:42:33.428Z,97.00
2018-12-29T01:45:04.410Z,97.20
2018-12-29T01:47:35.402Z,97.00
2018-12-29T01:50:06.579Z,97.10
2018-12-29T01:52:37.846Z,97.10
2018-12-29T01:55:08.866Z,97.10
2018-12-29T01:57:40.133Z,97.10
2018-12-29T02:00:11.479Z,97.10
2018-12-29T02:02:42.356Z,97.10
2018-12-29T02:05:14.326Z,97.00
2018-12-29T02:07:45.176Z,97.10
2018-12-29T02:10:16.618Z,97.20
2018-12-29T02:12:47.498Z,97.30
2018-12-29T02:15:24.691Z,97.30
2018-12-29T02:17:51.292Z,97.40
2018-12-29T02:20:22.675Z,97.60
2018-12-29T02:22:53.558Z,97.30
2018-12-29T02:25:25.065Z,97.20
2018-12-29T02:27:56.303Z,97.60
2018-12-29T02:30:28.948Z,97.40
2018-12-29T02:32:59.939Z,97.50
2018-12-29T02:35:30.873Z,97.60
2018-12-29T02:38:01.950Z,97.80
2018-12-29T02:40:32.928Z,97.70
2018-12-29T02:43:03.822Z,97.80
2018-12-29T02:45:34.705Z,97.80
2018-12-29T02:48:05.606Z,97.70
2018-12-29T02:50:37.099Z,97.50
2018-12-29T02:53:07.985Z,97.40
2018-12-29T02:55:38.983Z,97.40
2018-12-29T02:58:09.864Z,97.80
2018-12-29T03:00:41.050Z,97.70
2018-12-29T03:03:11.746Z,98.00
2018-12-29T03:05:42.827Z,97.80
2018-12-29T03:08:13.982Z,97.70
2018-12-29T03:10:44.802Z,98.10
2018-12-29T03:13:15.775Z,98.10
2018-12-29T03:15:46.746Z,98.00
2018-12-29T03:18:19.025Z,98.10
2018-12-29T03:20:50.006Z,98.10
2018-12-29T03:23:20.807Z,98.20
2018-12-29T03:25:52.942Z,98.20
2018-12-29T03:28:23.814Z,98.20
2018-12-29T03:30:55.607Z,98.10
2018-12-29T03:33:26.525Z,98.20
2018-12-29T03:35:57.409Z,98.00
2018-12-29T03:38:29.267Z,98.10
2018-12-29T03:41:00.032Z,98.00
2018-12-29T03:43:31.217Z,98.30
2018-12-29T03:46:02.367Z,98.10
2018-12-29T03:48:33.501Z,98.10
2018-12-29T03:51:04.370Z,98.30
2018-12-29T03:53:35.584Z,98.10
2018-12-29T03:56:06.732Z,98.20
2018-12-29T03:58:37.874Z,98.40
2018-12-29T04:01:08.645Z,98.30
2018-12-29T04:03:39.928Z,98.30
2018-12-29T04:06:11.094Z,98.30
2018-12-29T04:08:43.275Z,98.20
2018-12-29T04:11:14.075Z,98.40
2018-12-29T04:13:45.138Z,98.40
2018-12-29T04:16:16.694Z,98.40
2018-12-29T04:18:47.377Z,98.30
2018-12-29T04:21:18.136Z,98.30
2018-12-29T04:23:48.924Z,98.30
2018-12-29T04:26:19.861Z,98.40
2018-12-29T04:28:50.801Z,98.40
2018-12-29T04:31:21.374Z,98.40
2018-12-29T04:33:52.279Z,98.30
2018-12-29T04:36:22.997Z,98.30
2018-12-29T04:38:54.117Z,98.30
2018-12-29T04:41:25.156Z,98.10
2018-12-29T04:43:55.921Z,98.30
2018-12-29T04:46:27.557Z,98.40
2018-12-29T04:48:58.307Z,98.30
2018-12-29T04:51:29.298Z,98.30
2018-12-29T04:54:00.389Z,98.40
2018-12-29T04:56:31.281Z,98.00
2018-12-29T04:59:01.957Z,98.20
2018-12-29T05:01:32.742Z,98.20
2018-12-29T05:04:03.515Z,98.30
2018-12-29T05:06:34.310Z,98.10
2018-12-29T05:09:06.623Z,98.20
2018-12-29T05:11:37.751Z,98.20
2018-12-29T05:14:08.509Z,98.20
2018-12-29T05:16:39.480Z,98.20
2018-12-29T05:19:10.336Z,98.30
2018-12-29T05:21:41.339Z,98.00
2018-12-29T05:24:12.048Z,98.00
2018-12-29T05:26:42.810Z,98.00
2018-12-29T05:29:13.775Z,98.00
2018-12-29T05:31:44.816Z,97.90
2018-12-29T05:34:15.659Z,97.90
2018-12-29T05:36:46.439Z,98.00
2018-12-29T05:39:17.670Z,97.90
2018-12-29T05:41:48.418Z,97.90
2018-12-29T05:44:19.241Z,97.80
2018-12-29T05:46:50.460Z,97.90
2018-12-29T05:49:21.125Z,98.00
2018-12-29T05:51:52.020Z,97.80
2018-12-29T05:54:22.908Z,97.80
2018-12-29T05:56:53.695Z,98.00
2018-12-29T05:59:24.490Z,97.80
2018-12-29T06:01:55.669Z,97.80
2018-12-29T06:04:26.492Z,97.70
2018-12-29T06:06:57.509Z,97.70
2018-12-29T06:09:28.293Z,97.70
2018-12-29T06:11:59.074Z,97.60
2018-12-29T06:14:30.005Z,97.60
2018-12-29T06:17:01.096Z,97.60
2018-12-29T06:19:32.262Z,97.50
2018-12-29T06:22:03.075Z,97.50
2018-12-29T06:24:34.079Z,97.60
2018-12-29T06:27:04.950Z,97.50
2018-12-29T06:29:35.893Z,97.50
2018-12-29T06:32:06.668Z,97.50
2018-12-29T06:34:37.900Z,97.40
2018-12-29T06:37:08.654Z,97.50
2018-12-29T06:39:39.901Z,97.40
2018-12-29T06:42:10.815Z,97.50
2018-12-29T06:44:42.471Z,97.30
2018-12-29T06:47:13.438Z,97.30
2018-12-29T06:49:44.552Z,97.30
2018-12-29T06:52:15.693Z,97.40
2018-12-29T06:54:46.497Z,97.20
2018-12-29T06:57:17.404Z,97.20
2018-12-29T06:59:48.286Z,97.20
2018-12-29T07:02:19.259Z,97.20
2018-12-29T07:04:49.950Z,97.20
2018-12-29T07:07:20.837Z,97.40
2018-12-29T07:09:51.899Z,97.10
2018-12-29T07:12:22.717Z,97.00
2018-12-29T07:14:53.912Z,97.00
2018-12-29T07:17:24.693Z,97.00
2018-12-29T07:19:55.729Z,97.00
2018-12-29T07:22:26.465Z,97.00
2018-12-29T07:24:57.685Z,96.90
2018-12-29T07:27:29.234Z,96.90
2018-12-29T07:30:00.093Z,96.90
2018-12-29T07:32:30.954Z,96.90
2018-12-29T07:35:02.060Z,96.90
2018-12-29T07:37:33.269Z,96.90
2018-12-29T07:40:04.901Z,96.90
2018-12-29T07:42:36.106Z,96.80
2018-12-29T07:45:07.025Z,96.80
2018-12-29T07:47:38.179Z,96.80
2018-12-29T07:50:09.109Z,96.80
2018-12-29T07:52:40.511Z,96.80
2018-12-29T07:55:11.610Z,96.80
2018-12-29T07:57:42.753Z,96.80
2018-12-29T08:00:13.899Z,96.80
2018-12-29T08:02:45.141Z,96.80
2018-12-29T08:05:16.116Z,96.80
2018-12-29T08:07:47.027Z,96.80
2018-12-29T08:10:17.954Z,96.80
2018-12-29T08:12:48.931Z,97.10
2018-12-29T08:15:20.217Z,96.70
2018-12-29T08:17:51.259Z,96.80
2018-12-29T08:20:22.094Z,96.80
2018-12-29T08:22:52.894Z,96.80
2018-12-29T08:25:25.233Z,96.80
2018-12-29T08:27:55.999Z,96.80
2018-12-29T08:30:27.157Z,96.80
2018-12-29T08:32:58.117Z,96.90
2018-12-29T08:35:28.962Z,96.80
2018-12-29T08:38:00.215Z,96.90
2018-12-29T08:40:31.105Z,96.90
2018-12-29T08:43:02.026Z,96.90
2018-12-29T08:45:32.601Z,97.00
2018-12-29T08:48:03.175Z,97.00
2018-12-29T08:50:33.757Z,97.20
2018-12-29T08:53:04.468Z,97.30
2018-12-29T08:55:35.191Z,97.30
2018-12-29T08:58:06.374Z,97.40
2018-12-29T09:00:37.535Z,97.50
2018-12-29T09:03:09.663Z,97.60
2018-12-29T09:05:41.360Z,97.60
2018-12-29T09:08:12.136Z,97.50
2018-12-29T09:10:43.215Z,97.50
2018-12-29T09:13:14.208Z,97.60
2018-12-29T09:15:46.959Z,97.60
2018-12-29T09:18:20.358Z,97.50
2018-12-29T09:20:51.487Z,97.60
2018-12-29T09:23:22.424Z,97.60
2018-12-29T09:25:53.281Z,97.50
2018-12-29T09:28:26.188Z,97.50
2018-12-29T09:30:57.036Z,97.50
2018-12-29T09:33:27.824Z,97.70
2018-12-29T09:35:59.083Z,97.60
2018-12-29T09:38:30.226Z,97.50
2018-12-29T09:41:01.368Z,97.60
2018-12-29T09:43:32.192Z,97.60
2018-12-29T09:46:03.160Z,97.60
2018-12-29T09:48:33.929Z,97.60
2018-12-29T09:51:04.892Z,97.50
2018-12-29T09:53:36.020Z,97.60
2018-12-29T09:56:08.238Z,97.50
2018-12-29T09:58:39.037Z,97.50
2018-12-29T10:01:09.849Z,97.50
2018-12-29T10:03:41.026Z,97.30
2018-12-29T10:06:12.390Z,97.20
2018-12-29T10:08:43.522Z,97.30
2018-12-29T10:11:14.338Z,97.30
2018-12-29T10:13:45.401Z,97.30
2018-12-29T10:16:16.222Z,97.30
2018-12-29T10:18:47.056Z,97.50
2018-12-29T10:21:17.943Z,97.50
2018-12-29T10:23:49.264Z,97.50
2018-12-29T10:26:20.174Z,97.50
2018-12-29T10:28:50.961Z,97.50
2018-12-29T10:31:21.999Z,97.60
2018-12-29T10:33:53.325Z,97.60
2018-12-29T10:36:24.129Z,97.70
2018-12-29T10:38:55.127Z,97.60
2018-12-29T10:41:26.022Z,97.70
2018-12-29T10:43:56.697Z,97.60
2018-12-29T10:46:27.714Z,97.60
2018-12-29T10:48:58.652Z,97.60
2018-12-29T10:51:29.578Z,97.50
2018-12-29T10:54:01.264Z,97.60
2018-12-29T10:56:32.271Z,97.60
2018-12-29T10:59:03.160Z,97.60
2018-12-29T11:01:34.133Z,97.60
2018-12-29T11:04:05.426Z,97.50
2018-12-29T11:06:36.266Z,97.50
2018-12-29T11:09:07.717Z,97.50
2018-12-29T11:11:38.933Z,97.50
2018-12-29T11:14:10.176Z,97.60
2018-12-29T11:16:41.308Z,97.60
2018-12-29T11:19:12.466Z,97.70
2018-12-29T11:21:43.669Z,97.70
2018-12-29T11:24:14.461Z,97.70
2018-12-29T11:26:45.493Z,97.60
2018-12-29T11:29:16.346Z,97.60
2018-12-29T11:31:47.152Z,97.70
2018-12-29T11:34:18.111Z,97.60
2018-12-29T11:36:48.918Z,97.60
2018-12-29T11:39:19.907Z,97.60
2018-12-29T11:41:50.701Z,97.50
2018-12-29T11:44:21.489Z,97.60
2018-12-29T11:46:52.565Z,97.60
2018-12-29T11:49:23.348Z,97.60
2018-12-29T11:51:54.145Z,97.60
2018-12-29T11:54:25.328Z,97.60
2018-12-29T11:56:56.586Z,97.50
2018-12-29T11:59:27.686Z,97.50
2018-12-29T12:01:58.755Z,97.50
2018-12-29T12:04:29.651Z,97.50
2018-12-29T12:07:00.738Z,97.60
2018-12-29T12:09:31.630Z,97.50
2018-12-29T12:12:02.602Z,97.60
2018-12-29T12:14:33.367Z,97.60
2018-12-29T12:17:04.233Z,97.60
2018-12-29T12:19:35.105Z,97.60
2018-12-29T12:22:06.125Z,97.60
2018-12-29T12:24:37.270Z,97.60
2018-12-29T12:27:07.947Z,97.60
2018-12-29T12:29:39.072Z,97.70
2018-12-29T12:32:09.943Z,97.70
2018-12-29T12:34:40.866Z,97.70
2018-12-29T12:37:11.753Z,97.90
2018-12-29T12:39:42.953Z,98.00
2018-12-29T12:42:14.030Z,98.00
2018-12-29T12:44:45.190Z,97.90
2018-12-29T12:47:16.206Z,98.10
2018-12-29T12:49:47.173Z,98.10
2018-12-29T12:52:18.425Z,98.30
2018-12-29T12:54:49.377Z,98.40
2018-12-29T12:57:20.585Z,98.30
2018-12-29T12:59:51.719Z,98.40
2018-12-29T13:02:22.606Z,98.40
2018-12-29T13:04:53.384Z,98.20
2018-12-29T13:07:24.445Z,98.40
2018-12-29T13:09:55.287Z,98.40
2018-12-29T13:12:26.118Z,98.40
2018-12-29T13:14:56.957Z,98.50
2018-12-29T13:17:28.199Z,98.60
2018-12-29T13:19:58.960Z,98.60
2018-12-29T13:22:30.529Z,98.50
2018-12-29T13:25:01.633Z,98.50
2018-12-29T13:27:32.448Z,98.50
2018-12-29T13:30:03.498Z,98.40
2018-12-29T13:32:34.434Z,98.40
2018-12-29T13:35:05.286Z,98.50
2018-12-29T13:37:35.857Z,98.60
2018-12-29T13:40:09.377Z,98.60
2018-12-29T13:42:40.642Z,98.60
2018-12-29T13:45:11.345Z,98.60
2018-12-29T13:47:42.193Z,98.70
2018-12-29T13:50:13.119Z,98.60
2018-12-29T13:52:43.882Z,98.80
2018-12-29T13:55:15.175Z,98.70
2018-12-29T13:57:46.002Z,98.80
2018-12-29T14:00:18.009Z,98.80
2018-12-29T14:02:48.954Z,98.80
2018-12-29T14:05:19.473Z,98.80
2018-12-29T14:07:50.372Z,98.70
2018-12-29T14:10:21.233Z,98.80
2018-12-29T14:12:52.930Z,98.80
2018-12-29T14:15:23.778Z,98.80
2018-12-29T14:17:54.962Z,98.80
2018-12-29T14:20:25.952Z,98.90
2018-12-29T14:22:56.781Z,98.90
2018-12-29T14:25:28.329Z,99.00
2018-12-29T14:27:59.238Z,99.00
2018-12-29T14:30:30.211Z,98.90
2018-12-29T14:33:01.160Z,98.90
2018-12-29T14:35:32.164Z,99.00
2018-12-29T14:38:03.472Z,98.90
2018-12-29T14:40:34.438Z,99.00
2018-12-29T14:43:06.051Z,98.80
2018-12-29T14:45:36.721Z,98.80
2018-12-29T14:48:08.134Z,99.00
2018-12-29T14:50:42.041Z,99.10
2018-12-29T14:53:12.966Z,99.00
2018-12-29T14:55:43.880Z,99.10
2018-12-29T14:58:15.008Z,99.30
2018-12-29T15:00:46.094Z,99.30
2018-12-29T15:03:17.118Z,99.10
2018-12-29T15:05:48.131Z,99.10
2018-12-29T15:08:19.212Z,99.20
2018-12-29T15:10:50.374Z,99.30
2018-12-29T15:13:21.421Z,99.20
2018-12-29T15:15:52.273Z,99.20
2018-12-29T15:18:23.540Z,99.20
2018-12-29T15:20:54.680Z,99.60
2018-12-29T15:23:25.998Z,99.30
2018-12-29T15:25:57.320Z,99.30
2018-12-29T15:28:28.145Z,99.30
2018-12-29T15:30:59.063Z,99.40
2018-12-29T15:33:32.182Z,99.40
2018-12-29T15:36:03.340Z,99.50
2018-12-29T15:38:34.147Z,99.40
2018-12-29T15:41:05.731Z,99.30
2018-12-29T15:43:36.965Z,99.20
2018-12-29T15:46:07.760Z,99.40
2018-12-29T15:48:39.262Z,99.40
2018-12-29T15:51:10.329Z,99.30
2018-12-29T15:53:41.186Z,99.30
2018-12-29T15:56:12.487Z,99.40
2018-12-29T15:58:43.605Z,99.40
2018-12-29T16:01:14.653Z,99.40
2018-12-29T16:03:45.857Z,99.50
2018-12-29T16:06:17.121Z,99.40
2018-12-29T16:08:48.845Z,99.50
2018-12-29T16:11:35.672Z,99.40
2018-12-29T16:13:55.033Z,99.30
2018-12-29T16:16:26.539Z,99.40
2018-12-29T16:18:59.007Z,99.20
2018-12-29T16:21:30.176Z,99.30
2018-12-29T16:24:01.315Z,99.50
2018-12-29T16:26:32.915Z,99.40
2018-12-29T16:29:04.961Z,99.40
2018-12-29T16:31:35.807Z,99.30
2018-12-29T16:34:07.723Z,99.40
2018-12-29T16:36:38.824Z,99.50
2018-12-29T16:39:09.804Z,99.30
2018-12-29T16:41:41.259Z,99.40
2018-12-29T16:44:12.282Z,99.30
2018-12-29T16:46:43.321Z,99.30
2018-12-29T16:49:13.999Z,99.20
2018-12-29T16:51:44.941Z,99.50
2018-12-29T16:54:15.780Z,99.40
2018-12-29T16:56:46.885Z,99.40
2018-12-29T16:59:18.030Z,99.50
2018-12-29T17:01:49.179Z,99.60
2018-12-29T17:04:19.907Z,99.50
2018-12-29T17:06:50.748Z,99.40
2018-12-29T17:09:22.041Z,99.30
2018-12-29T17:11:53.139Z,99.30
2018-12-29T17:14:24.478Z,99.50
2018-12-29T17:16:55.923Z,99.50
2018-12-29T17:19:27.294Z,99.30
2018-12-29T17:21:58.311Z,99.40
2018-12-29T17:24:29.142Z,99.40
2018-12-29T17:27:00.464Z,99.40
2018-12-29T17:29:31.392Z,99.30
2018-12-29T17:32:02.247Z,99.30
2018-12-29T17:34:33.038Z,99.20
2018-12-29T17:37:04.154Z,99.30
2018-12-29T17:39:35.051Z,99.40
2018-12-29T17:42:06.214Z,99.40
2018-12-29T17:44:37.099Z,99.40
2018-12-29T17:47:07.994Z,99.40
2018-12-29T17:49:39.311Z,99.30
2018-12-29T17:52:10.400Z,99.40
2018-12-29T17:54:41.189Z,99.30
2018-12-29T17:57:12.095Z,99.20
2018-12-29T17:59:42.970Z,99.30
2018-12-29T18:02:13.780Z,99.30
2018-12-29T18:04:44.878Z,99.30
2018-12-29T18:07:16.030Z,99.50
2018-12-29T18:09:47.171Z,99.20
2018-12-29T18:12:18.314Z,99.30
2018-12-29T18:14:49.767Z,99.20
2018-12-29T18:17:20.627Z,99.30
2018-12-29T18:19:51.845Z,99.20
2018-12-29T18:22:23.096Z,99.30
2018-12-29T18:24:57.516Z,99.10
2018-12-29T18:27:28.764Z,99.10
2018-12-29T18:30:00.291Z,99.20
2018-12-29T18:32:31.377Z,99.20
2018-12-29T18:35:02.111Z,99.20
2018-12-29T18:37:32.979Z,99.20
2018-12-29T18:40:04.498Z,99.20
2018-12-29T18:42:35.815Z,99.20
2018-12-29T18:45:09.239Z,99.30
2018-12-29T18:47:40.143Z,99.20
2018-12-29T18:50:10.977Z,99.20
2018-12-29T18:52:41.779Z,99.20
2018-12-29T18:55:12.971Z,99.20
2018-12-29T18:57:43.855Z,99.40
2018-12-29T19:00:17.893Z,99.20
2018-12-29T19:02:49.166Z,99.20
2018-12-29T19:05:20.042Z,99.10
2018-12-29T19:07:51.118Z,99.10
2018-12-29T19:10:22.396Z,99.00
2018-12-29T19:12:54.963Z,99.00
2018-12-29T19:15:27.601Z,99.00
2018-12-29T19:17:59.099Z,98.90
2018-12-29T19:20:30.847Z,99.10
2018-12-29T19:23:01.991Z,99.10
2018-12-29T19:25:33.145Z,99.00
2018-12-29T19:28:04.396Z,99.00
2018-12-29T19:30:35.468Z,99.20
2018-12-29T19:33:06.601Z,99.20
2018-12-29T19:35:37.710Z,99.10
2018-12-29T19:38:08.880Z,99.20
2018-12-29T19:40:42.587Z,99.00
2018-12-29T19:43:13.913Z,99.20
2018-12-29T19:45:44.924Z,99.90
2018-12-29T19:48:15.613Z,99.90
2018-12-29T19:50:46.531Z,99.90
2018-12-29T19:53:19.397Z,99.90
2018-12-29T19:55:50.212Z,99.90
2018-12-29T19:58:21.094Z,99.90
2018-12-29T20:00:51.877Z,99.90
2018-12-29T20:03:22.908Z,99.90
2018-12-29T20:05:54.480Z,99.90
2018-12-29T20:08:25.213Z,99.90
2018-12-29T20:10:59.788Z,99.90
2018-12-29T20:13:30.702Z,99.90
2018-12-29T20:16:01.967Z,99.90
2018-12-29T20:18:33.235Z,99.90
2018-12-29T20:21:06.088Z,99.90
2018-12-29T20:23:38.548Z,99.90
2018-12-29T20:26:09.417Z,99.90
2018-12-29T20:28:42.019Z,99.90
2018-12-29T20:31:13.294Z,99.90
2018-12-29T20:33:44.066Z,99.90
2018-12-29T20:36:15.019Z,99.90
2018-12-29T20:38:46.090Z,99.90
2018-12-29T20:41:19.847Z,99.90
2018-12-29T20:43:50.755Z,99.90
2018-12-29T20:46:21.797Z,99.90
2018-12-29T20:48:52.667Z,99.90
2018-12-29T20:51:24.085Z,99.90
2018-12-29T20:53:56.577Z,99.90
2018-12-29T20:56:28.119Z,99.90
2018-12-29T20:58:59.106Z,99.90
2018-12-29T21:01:29.944Z,99.90
2018-12-29T21:04:00.732Z,99.90
2018-12-29T21:06:31.701Z,99.90
2018-12-29T21:09:02.587Z,99.90
2018-12-29T21:11:35.622Z,99.90
2018-12-29T21:14:06.518Z,99.90
2018-12-29T21:16:37.716Z,99.90
2018-12-29T21:19:08.593Z,99.90
2018-12-29T21:21:39.623Z,99.90
2018-12-29T21:24:12.436Z,99.90
2018-12-29T21:26:43.354Z,99.90
2018-12-29T21:29:14.437Z,99.90
2018-12-29T21:31:45.283Z,99.90
2018-12-29T21:34:16.611Z,99.80
2018-12-29T21:36:48.134Z,99.90
2018-12-29T21:39:20.149Z,99.80
2018-12-29T21:41:51.238Z,99.90
2018-12-29T21:44:22.139Z,99.80
2018-12-29T21:46:53.078Z,99.70
2018-12-29T21:49:23.890Z,99.70
2018-12-29T21:51:54.873Z,99.70
2018-12-29T21:54:25.718Z,99.70
2018-12-29T21:56:56.684Z,99.80
2018-12-29T21:59:27.552Z,99.70
2018-12-29T22:01:58.677Z,99.80
2018-12-29T22:04:29.738Z,99.70
2018-12-29T22:07:01.153Z,99.70
2018-12-29T22:09:32.426Z,99.60
2018-12-29T22:12:03.394Z,99.70
2018-12-29T22:14:34.888Z,99.60
2018-12-29T22:17:06.348Z,99.60
2018-12-29T22:19:37.193Z,99.60
2018-12-29T22:22:08.206Z,99.60
2018-12-29T22:24:39.361Z,99.50
2018-12-29T22:27:10.599Z,99.50
2018-12-29T22:29:41.958Z,99.60
2018-12-29T22:32:13.203Z,99.60
2018-12-29T22:34:44.635Z,99.60
2018-12-29T22:37:15.723Z,99.60
2018-12-29T22:39:46.536Z,99.60
2018-12-29T22:42:17.429Z,99.70
2018-12-29T22:44:48.393Z,99.50
2018-12-29T22:47:19.356Z,99.50
2018-12-29T22:49:50.584Z,99.50
2018-12-29T22:52:21.403Z,99.40
2018-12-29T22:54:52.223Z,99.30
2018-12-29T22:57:23.044Z,99.50
2018-12-29T22:59:54.250Z,99.40
2018-12-29T23:02:25.321Z,99.40
2018-12-29T23:04:56.435Z,99.30
2018-12-29T23:07:27.462Z,99.20
2018-12-29T23:09:58.752Z,99.10
2018-12-29T23:12:29.829Z,99.00
2018-12-29T23:15:01.431Z,99.00
2018-12-29T23:17:32.649Z,98.90
2018-12-29T23:20:03.673Z,99.00
2018-12-29T23:22:34.979Z,99.00
2018-12-29T23:25:07.703Z,99.00
2018-12-29T23:27:39.314Z,98.80
2018-12-29T23:30:11.160Z,99.10
2018-12-29T23:32:43.192Z,98.70
2018-12-29T23:35:14.350Z,98.60
2018-12-29T23:37:45.418Z,98.60
2018-12-29T23:40:16.484Z,98.50
2018-12-29T23:42:47.184Z,98.50
2018-12-29T23:45:17.766Z,98.50
2018-12-29T23:47:48.862Z,98.60
2018-12-29T23:50:20.062Z,98.40
2018-12-29T23:52:52.553Z,98.40
2018-12-29T23:55:23.895Z,98.30
2018-12-29T23:57:54.698Z,98.30
